createdAt,value
2019-04-23T00:02:30.120Z,3.20
2019-04-23T00:04:59.546Z,3.47
2019-04-23T00:07:41.485Z,3.13
2019-04-23T00:10:12.074Z,3.67
2019-04-23T00:15:17.091Z,3.20
2019-04-23T00:17:52.061Z,3.27
2019-04-23T00:20:23.558Z,3.27
2019-04-23T00:23:06.111Z,3.70
2019-04-23T00:25:51.039Z,3.57
2019-04-23T00:28:20.448Z,3.50
2019-04-23T00:30:58.229Z,4.10
2019-04-23T00:33:25.043Z,3.73
2019-04-23T00:36:15.543Z,4.20
2019-04-23T00:38:34.966Z,3.60
2019-04-23T00:41:02.973Z,3.97
2019-04-23T00:43:37.781Z,4.30
2019-04-23T00:46:06.303Z,4.27
2019-04-23T00:51:03.413Z,3.73
2019-04-23T00:53:38.885Z,3.97
2019-04-23T00:56:32.165Z,3.70
2019-04-23T00:58:51.095Z,4.33
2019-04-23T01:01:26.931Z,4.20
2019-04-23T01:03:53.054Z,3.97
2019-04-23T01:06:23.612Z,3.90
2019-04-23T01:09:00.062Z,4.23
2019-04-23T01:11:23.969Z,4.60
2019-04-23T01:14:01.027Z,4.60
2019-04-23T01:19:20.637Z,4.60
2019-04-23T01:21:32.624Z,4.10
2019-04-23T01:24:25.125Z,4.43
2019-04-23T01:27:51.549Z,4.90
2019-04-23T01:30:26.642Z,4.70
2019-04-23T01:33:15.408Z,4.80
2019-04-23T01:35:30.012Z,5.00
2019-04-23T01:38:02.482Z,4.73
2019-04-23T01:40:36.600Z,4.77
2019-04-23T01:43:10.800Z,5.03
2019-04-23T01:45:35.891Z,4.90
2019-04-23T01:48:13.654Z,4.40
2019-04-23T01:53:28.785Z,5.13
2019-04-23T02:01:01.227Z,5.20
2019-04-23T02:03:34.832Z,5.50
2019-04-23T02:06:06.835Z,4.80
2019-04-23T02:08:40.493Z,5.20
2019-04-23T02:11:25.341Z,4.80
2019-04-23T02:13:49.129Z,4.90
2019-04-23T02:16:19.281Z,5.37
2019-04-23T02:19:03.704Z,4.83
2019-04-23T02:21:22.517Z,5.20
2019-04-23T02:23:58.376Z,5.37
2019-04-23T02:26:33.950Z,5.73
2019-04-23T02:29:14.645Z,5.60
2019-04-23T02:34:47.172Z,5.23
2019-04-23T02:39:32.862Z,5.33
2019-04-23T02:42:04.795Z,5.60
2019-04-23T02:44:34.961Z,5.80
2019-04-23T02:52:16.243Z,5.93
2019-04-23T02:54:51.075Z,5.90
2019-04-23T02:57:18.634Z,6.60
2019-04-23T03:00:07.991Z,6.23
2019-04-23T03:02:45.163Z,6.07
2019-04-23T03:10:02.892Z,6.00
2019-04-23T03:12:37.734Z,5.90
2019-04-23T03:21:24.461Z,6.73
2019-04-23T03:23:52.076Z,6.17
2019-04-23T03:28:57.622Z,6.37
2019-04-23T03:35:08.856Z,5.77
2019-04-23T03:37:04.088Z,6.33
2019-04-23T03:38:54.368Z,6.47
2019-04-23T03:43:51.973Z,5.90
2019-04-23T03:49:09.794Z,6.17
2019-04-23T03:51:42.897Z,6.60
2019-04-23T03:59:26.580Z,6.47
2019-04-23T04:09:34.762Z,7.10
2019-04-23T04:12:00.901Z,6.30
2019-04-23T04:22:23.028Z,6.40
2019-04-23T04:24:41.619Z,5.57
2019-04-23T04:32:11.772Z,5.87
2019-04-23T04:40:12.305Z,6.30
2019-04-23T04:42:15.186Z,6.23
2019-04-23T04:45:14.305Z,6.83
2019-04-23T04:52:43.953Z,6.17
2019-04-23T04:55:02.967Z,6.40
2019-04-23T05:00:13.240Z,6.93
2019-04-23T05:02:53.188Z,7.07
2019-04-23T05:05:35.286Z,6.87
2019-04-23T05:07:39.894Z,7.20
2019-04-23T05:10:29.909Z,7.50
2019-04-23T05:13:11.784Z,6.87
2019-04-23T05:15:17.162Z,7.50
2019-04-23T05:18:23.264Z,7.07
2019-04-23T05:25:39.583Z,7.70
2019-04-23T05:28:12.559Z,7.03
2019-04-23T05:30:52.084Z,7.47
2019-04-23T05:38:35.841Z,6.77
2019-04-23T05:41:03.898Z,7.10
2019-04-23T05:43:29.641Z,7.03
2019-04-23T05:46:04.429Z,7.17
2019-04-23T05:48:35.218Z,6.80
2019-04-23T05:53:43.660Z,6.77
2019-04-23T05:56:07.688Z,6.70
2019-04-23T05:58:43.728Z,6.63
2019-04-23T06:04:12.938Z,7.17
2019-04-23T06:09:12.657Z,6.40
2019-04-23T06:14:11.392Z,6.70
2019-04-23T06:16:41.202Z,6.30
2019-04-23T06:19:22.753Z,7.00
2019-04-23T06:22:12.586Z,7.07
2019-04-23T06:27:01.677Z,6.30
2019-04-23T06:29:35.725Z,6.80
2019-04-23T06:32:04.661Z,6.53
2019-04-23T06:37:09.714Z,6.70
2019-04-23T06:39:42.842Z,6.63
2019-04-23T06:42:11.632Z,6.87
2019-04-23T06:44:52.052Z,6.67
2019-04-23T06:47:20.189Z,6.70
2019-04-23T06:49:56.002Z,7.20
2019-04-23T06:52:21.716Z,6.53
2019-04-23T06:57:27.088Z,6.43
2019-04-23T06:59:59.276Z,6.80
2019-04-23T07:02:33.803Z,6.67
2019-04-23T07:05:11.337Z,7.00
2019-04-23T07:10:11.535Z,6.83
2019-04-23T07:12:52.305Z,6.50
2019-04-23T07:15:30.816Z,6.67
2019-04-23T07:17:48.100Z,6.87
2019-04-23T07:20:21.674Z,6.83
2019-04-23T07:23:00.755Z,6.57
2019-04-23T07:25:48.533Z,6.43
2019-04-23T07:28:06.942Z,7.23
2019-04-23T07:30:35.832Z,8.50
2019-04-23T07:33:12.028Z,7.47
2019-04-23T07:35:45.264Z,6.50
2019-04-23T07:38:56.370Z,6.77
2019-04-23T07:41:43.280Z,6.70
2019-04-23T07:44:28.203Z,6.53
2019-04-23T07:49:59.185Z,5.90
2019-04-23T07:52:20.153Z,6.60
2019-04-23T07:54:58.684Z,6.17
2019-04-23T07:57:41.936Z,6.63
2019-04-23T08:00:02.576Z,7.03
2019-04-23T08:02:37.981Z,6.53
2019-04-23T08:07:42.295Z,6.03
2019-04-23T08:10:14.009Z,6.23
2019-04-23T08:12:45.124Z,6.13
2019-04-23T08:15:23.165Z,6.80
2019-04-23T08:18:04.811Z,6.67
2019-04-23T08:20:47.427Z,6.77
2019-04-23T08:23:12.628Z,6.63
2019-04-23T08:26:26.773Z,6.40
2019-04-23T08:28:59.573Z,6.30
2019-04-23T08:31:35.025Z,6.50
2019-04-23T08:34:08.538Z,6.87
2019-04-23T08:36:37.553Z,6.17
2019-04-23T08:39:05.455Z,7.00
2019-04-23T08:41:46.565Z,7.43
2019-04-23T08:44:25.440Z,7.20
2019-04-23T08:47:06.869Z,6.87
2019-04-23T08:49:36.137Z,6.83
2019-04-23T08:52:10.503Z,6.47
2019-04-23T08:57:08.713Z,6.47
2019-04-23T08:59:45.197Z,6.17
2019-04-23T09:04:54.168Z,6.00
2019-04-23T09:10:09.712Z,7.40
2019-04-23T09:12:55.263Z,6.77
2019-04-23T09:15:18.751Z,7.33
2019-04-23T09:17:49.869Z,7.50
2019-04-23T09:20:23.460Z,6.70
2019-04-23T09:22:50.340Z,7.10
2019-04-23T09:25:37.648Z,6.90
2019-04-23T09:28:09.572Z,5.90
2019-04-23T09:30:42.805Z,7.07
2019-04-23T09:36:27.487Z,7.13
2019-04-23T09:42:04.034Z,6.50
2019-04-23T09:44:58.099Z,5.30
2019-04-23T09:47:50.422Z,5.50
2019-04-23T09:53:01.368Z,5.17
2019-04-23T09:55:32.422Z,5.57
2019-04-23T09:58:03.257Z,6.23
2019-04-23T10:02:59.597Z,6.37
2019-04-23T10:05:31.044Z,5.87
2019-04-23T10:08:01.653Z,5.70
2019-04-23T10:10:23.257Z,5.70
2019-04-23T10:12:53.988Z,5.13
2019-04-23T10:15:30.446Z,6.07
2019-04-23T10:17:58.298Z,6.23
2019-04-23T10:20:29.031Z,6.17
2019-04-23T10:23:00.203Z,6.33
2019-04-23T10:25:31.948Z,5.90
2019-04-23T10:28:15.192Z,5.53
2019-04-23T10:30:47.147Z,5.90
2019-04-23T10:33:21.281Z,6.60
2019-04-23T10:36:00.345Z,5.90
2019-04-23T10:38:30.709Z,5.60
2019-04-23T10:41:04.498Z,5.53
2019-04-23T10:43:38.772Z,6.10
2019-04-23T10:46:47.123Z,5.80
2019-04-23T10:50:00.273Z,5.53
2019-04-23T10:54:45.703Z,6.43
2019-04-23T10:57:21.173Z,6.07
2019-04-23T10:59:55.167Z,6.50
2019-04-23T11:02:39.046Z,5.73
2019-04-23T11:07:51.388Z,6.43
2019-04-23T11:13:10.595Z,6.73
2019-04-23T11:15:47.254Z,6.13
2019-04-23T11:18:07.230Z,6.67
2019-04-23T11:20:41.561Z,6.80
2019-04-23T11:23:07.668Z,7.97
2019-04-23T11:25:55.695Z,6.40
2019-04-23T11:28:20.966Z,6.47
2019-04-23T11:30:54.852Z,7.10
2019-04-23T11:33:30.446Z,6.30
2019-04-23T11:38:48.870Z,6.80
2019-04-23T11:41:09.647Z,6.10
2019-04-23T11:43:44.330Z,7.37
2019-04-23T11:56:35.547Z,6.60
2019-04-23T11:58:52.490Z,5.90
2019-04-23T12:01:52.555Z,6.23
2019-04-23T12:04:49.900Z,6.67
2019-04-23T12:07:39.845Z,6.77
2019-04-23T12:10:29.971Z,6.83
2019-04-23T12:12:55.557Z,6.87
2019-04-23T12:18:05.298Z,6.70
2019-04-23T12:20:37.921Z,6.53
2019-04-23T12:23:28.131Z,6.47
2019-04-23T12:25:49.882Z,7.37
2019-04-23T12:28:20.649Z,6.20
2019-04-23T12:30:50.330Z,7.27
2019-04-23T12:36:34.014Z,5.90
2019-04-23T12:38:55.238Z,7.37
2019-04-23T12:41:29.872Z,6.80
2019-04-23T12:44:02.742Z,6.50
2019-04-23T12:46:38.393Z,6.67
2019-04-23T12:49:28.366Z,6.20
2019-04-23T12:54:21.552Z,6.53
2019-04-23T12:56:57.385Z,5.83
2019-04-23T12:59:36.694Z,5.80
2019-04-23T13:02:15.988Z,6.83
2019-04-23T13:04:48.731Z,6.20
2019-04-23T13:07:29.288Z,6.27
2019-04-23T13:10:01.526Z,5.90
2019-04-23T13:15:22.970Z,5.00
2019-04-23T13:18:04.642Z,4.90
2019-04-23T13:20:38.565Z,4.70
2019-04-23T13:26:32.059Z,5.30
2019-04-23T13:29:01.199Z,4.90
2019-04-23T13:31:39.757Z,4.67
2019-04-23T13:34:32.077Z,4.33
2019-04-23T13:37:06.696Z,4.70
2019-04-23T13:39:39.745Z,5.00
2019-04-23T13:42:26.211Z,5.13
2019-04-23T13:47:46.830Z,5.10
2019-04-23T13:55:14.480Z,4.10
2019-04-23T13:58:21.620Z,5.17
2019-04-23T14:00:58.073Z,5.40
2019-04-23T14:06:29.756Z,5.03
2019-04-23T14:11:27.601Z,4.97
2019-04-23T14:14:05.022Z,5.30
2019-04-23T14:16:44.648Z,4.40
2019-04-23T14:19:26.084Z,5.23
2019-04-23T14:21:45.901Z,5.23
2019-04-23T14:24:47.822Z,4.57
2019-04-23T14:27:10.981Z,5.30
2019-04-23T14:29:50.447Z,5.50
2019-04-23T14:32:22.538Z,5.20
2019-04-23T14:35:10.819Z,5.07
2019-04-23T14:37:45.749Z,5.73
2019-04-23T14:40:29.648Z,4.97
2019-04-23T14:53:48.208Z,5.03
2019-04-23T14:56:29.909Z,5.00
2019-04-23T15:04:14.777Z,5.50
2019-04-23T15:09:53.223Z,5.00
2019-04-23T15:12:11.968Z,5.60
2019-04-23T15:14:47.845Z,4.60
2019-04-23T15:17:13.025Z,4.40
2019-04-23T15:19:55.296Z,5.03
2019-04-23T15:25:15.329Z,4.93
2019-04-23T15:29:58.266Z,5.20
2019-04-23T15:32:53.590Z,5.00
2019-04-23T15:35:24.953Z,4.93
2019-04-23T15:40:23.313Z,5.60
2019-04-23T15:43:02.737Z,4.87
2019-04-23T15:45:28.558Z,5.20
2019-04-23T15:48:03.312Z,5.37
2019-04-23T15:50:40.099Z,6.10
2019-04-23T15:53:17.633Z,5.90
2019-04-23T15:55:49.175Z,5.30
2019-04-23T15:58:15.785Z,5.13
2019-04-23T16:01:21.183Z,5.07
2019-04-23T16:03:24.449Z,6.10
2019-04-23T16:05:59.799Z,5.97
2019-04-23T16:11:40.941Z,6.73
2019-04-23T16:16:51.506Z,10.43
2019-04-23T16:19:57.868Z,6.77
2019-04-23T16:22:19.053Z,18.83
2019-04-23T16:25:03.609Z,8.23
2019-04-23T16:27:34.841Z,7.43
2019-04-23T16:30:14.185Z,5.70
2019-04-23T16:36:01.499Z,6.83
2019-04-23T16:38:38.328Z,9.20
2019-04-23T16:40:57.314Z,10.83
2019-04-23T16:49:10.194Z,6.57
2019-04-23T16:54:16.964Z,10.10
2019-04-23T16:57:01.073Z,7.07
2019-04-23T16:59:18.439Z,9.03
2019-04-23T17:02:13.503Z,7.00
2019-04-23T17:04:38.627Z,8.63
2019-04-23T17:07:19.729Z,7.00
2019-04-23T17:10:08.225Z,6.40
2019-04-23T17:12:46.319Z,7.17
2019-04-23T17:15:22.496Z,6.50
2019-04-23T17:17:49.493Z,5.97
2019-04-23T17:20:28.873Z,6.13
2019-04-23T17:22:57.943Z,7.10
2019-04-23T17:25:37.637Z,6.20
2019-04-23T17:28:17.071Z,6.50
2019-04-23T17:30:41.832Z,7.33
2019-04-23T17:33:18.928Z,6.73
2019-04-23T17:38:49.561Z,6.43
2019-04-23T17:41:41.799Z,6.90
2019-04-23T17:44:18.188Z,6.70
2019-04-23T17:46:50.690Z,6.50
2019-04-23T17:49:15.382Z,6.73
2019-04-23T17:51:57.542Z,7.40
2019-04-23T17:57:07.508Z,6.30
2019-04-23T18:00:17.957Z,6.27
2019-04-23T18:02:49.645Z,6.53
2019-04-23T18:12:53.361Z,6.70
2019-04-23T18:15:09.596Z,7.00
2019-04-23T18:17:50.551Z,6.57
2019-04-23T18:20:37.743Z,7.03
2019-04-23T18:25:52.450Z,8.00
2019-04-23T18:28:21.982Z,7.50
2019-04-23T18:31:13.136Z,7.13
2019-04-23T18:36:08.084Z,8.23
2019-04-23T18:38:50.155Z,7.57
2019-04-23T18:41:37.869Z,7.10
2019-04-23T18:43:48.307Z,7.47
2019-04-23T18:51:21.469Z,7.33
2019-04-23T18:54:15.208Z,7.40
2019-04-23T18:56:56.131Z,7.77
2019-04-23T18:59:38.943Z,7.57
2019-04-23T19:02:07.295Z,6.73
2019-04-23T19:07:38.497Z,7.70
2019-04-23T19:10:30.617Z,7.40
2019-04-23T19:18:23.857Z,7.40
2019-04-23T19:21:08.051Z,7.60
2019-04-23T19:23:46.934Z,7.93
2019-04-23T19:26:41.672Z,7.60
2019-04-23T19:31:51.141Z,6.60
2019-04-23T19:39:26.171Z,6.70
2019-04-23T19:41:59.486Z,6.40
2019-04-23T19:47:33.308Z,7.13
2019-04-23T19:49:40.637Z,7.27
2019-04-23T19:52:48.226Z,7.30
2019-04-23T19:54:58.586Z,7.20
2019-04-23T19:57:59.994Z,7.50
2019-04-23T20:00:09.678Z,8.17
2019-04-23T20:03:13.737Z,6.90
2019-04-23T20:05:34.101Z,7.40
2019-04-23T20:08:13.201Z,7.20
2019-04-23T20:10:47.658Z,6.70
2019-04-23T20:13:23.964Z,6.57
2019-04-23T20:18:35.393Z,6.80
2019-04-23T20:26:13.656Z,6.53
2019-04-23T20:36:53.360Z,6.37
2019-04-23T20:39:32.977Z,6.60
2019-04-23T20:42:08.508Z,6.97
2019-04-23T20:44:53.488Z,6.50
2019-04-23T20:47:09.886Z,7.17
2019-04-23T20:49:44.239Z,6.90
2019-04-23T20:52:32.030Z,6.27
2019-04-23T20:57:43.790Z,7.10
2019-04-23T21:00:08.701Z,7.23
2019-04-23T21:03:18.484Z,7.27
2019-04-23T21:05:21.278Z,7.60
2019-04-23T21:10:37.202Z,6.73
2019-04-23T21:15:38.974Z,6.47
2019-04-23T21:18:15.625Z,6.60
2019-04-23T21:20:43.379Z,6.63
2019-04-23T21:25:47.721Z,6.30
2019-04-23T21:36:35.507Z,6.50
2019-04-23T21:39:38.649Z,6.70
2019-04-23T21:42:39.045Z,6.67
2019-04-23T21:45:09.077Z,6.30
2019-04-23T21:47:39.271Z,6.23
2019-04-23T21:50:11.842Z,6.13
2019-04-23T21:52:39.740Z,6.63
2019-04-23T21:55:14.835Z,6.47
2019-04-23T21:57:53.406Z,6.53
2019-04-23T22:00:07.599Z,6.30
2019-04-23T22:02:57.446Z,5.63
2019-04-23T22:08:02.562Z,6.47
2019-04-23T22:10:49.345Z,6.33
2019-04-23T22:13:22.730Z,5.73
2019-04-23T22:15:54.761Z,6.10
2019-04-23T22:18:18.264Z,5.73
2019-04-23T22:20:52.666Z,6.20
2019-04-23T22:23:21.525Z,5.70
2019-04-23T22:25:59.822Z,6.37
2019-04-23T22:28:30.173Z,5.90
2019-04-23T22:33:39.338Z,5.87
2019-04-23T22:36:09.403Z,5.93
2019-04-23T22:38:33.651Z,5.43
2019-04-23T22:41:08.619Z,6.07
2019-04-23T22:43:53.079Z,5.60
2019-04-23T22:49:20.006Z,5.80
2019-04-23T22:57:03.246Z,5.50
2019-04-23T22:59:26.597Z,5.43
2019-04-23T23:02:21.561Z,5.20
2019-04-23T23:04:41.038Z,5.30
2019-04-23T23:07:08.793Z,5.63
2019-04-23T23:09:49.129Z,5.93
2019-04-23T23:12:14.523Z,5.73
2019-04-23T23:14:54.765Z,6.10
2019-04-23T23:17:24.296Z,5.40
2019-04-23T23:20:11.079Z,5.50
2019-04-23T23:23:03.713Z,5.80
2019-04-23T23:27:57.723Z,6.00
2019-04-23T23:30:33.868Z,5.60
2019-04-23T23:35:28.374Z,4.90
2019-04-23T23:38:08.317Z,5.50
2019-04-23T23:40:36.199Z,6.40
2019-04-23T23:43:22.613Z,5.43
2019-04-23T23:48:12.787Z,5.43
2019-04-23T23:50:57.186Z,5.70
2019-04-23T23:56:05.544Z,6.17
2019-04-23T23:58:28.906Z,6.70
